Flight Track Log - Related Links

Times and Time Zones

All times are in EDT time to prevent confusion due to time zone crossing. See the CLH92 flight status page for this flight to view local times or setup timezone preferences in your user account.

Time Position Orientation Groundspeed Altitude Reporting Facility
EDT Latitude Longitude Course Direction KTS MPH feet Rate Location/Type
Mon 07:38:32 AM 49.6158 8.7189 165° South  Level Estimated
Mon 07:39:32 AM 49.5252 8.7573 165° South  Level Estimated
Mon 07:40:32 AM 49.4345 8.7955 165° South  Level Estimated
Mon 07:41:32 AM 49.3439 8.8336 165° South  Level Estimated
Mon 07:42:32 AM 49.2532 8.8716 165° South  Level Estimated
Mon 07:43:32 AM 49.1626 8.9094 165° South  Level Estimated
Mon 07:44:32 AM 49.0719 8.9471 165° South  Level Estimated
Mon 07:45:32 AM 48.9812 8.9846 165° South  Level Estimated
Mon 07:46:32 AM 48.8905 9.0220 165° South  Level Estimated
Mon 07:47:32 AM 48.7997 9.0593 165° South  Level Estimated
Mon 07:48:32 AM 48.7090 9.0964 165° South  Level Estimated
Mon 07:49:32 AM 48.6183 9.1334 165° South  Level Estimated
Mon 07:50:32 AM 48.5275 9.1703 165° South  Level Estimated
Mon 07:51:32 AM 48.4367 9.2070 165° South  Level Estimated
Mon 07:52:32 AM 48.3460 9.2436 165° South  Level Estimated
Mon 07:53:32 AM 48.2552 9.2801 165° South  Level Estimated
Mon 07:54:32 AM 48.1644 9.3164 165° South  Level Estimated
Mon 07:55:32 AM 48.0736 9.3526 165° South  Level Estimated
Mon 07:56:32 AM 47.9827 9.3887 165° South  Level Estimated
Mon 07:57:32 AM 47.8919 9.4247 165° South  Level Estimated
Mon 07:58:32 AM 47.8011 9.4605 165° South  Level Estimated
Mon 07:59:32 AM 47.7102 9.4962 165° South  Level Estimated
Mon 08:00:32 AM 47.6193 9.5318 345° North  Level Estimated
Mon 08:01:32 AM 47.7102 9.4962 165° South  Level Estimated
Mon 08:02:32 AM 47.6193 9.5318 345° North  Level Estimated
Mon 08:03:32 AM 47.7102 9.4962 165° South  Level Estimated
Mon 08:04:32 AM 47.6193 9.5318 345° North  Level Estimated
Mon 08:05:32 AM 47.7102 9.4962 165° South  Level Estimated
Mon 08:06:32 AM 47.6193 9.5318 345° North  Level Estimated
Mon 08:07:32 AM 47.7102 9.4962 165° South  Level Estimated
Mon 08:08:32 AM 47.6193 9.5318 345° North  Level Estimated
Mon 08:09:32 AM 47.7102 9.4962 165° South  Level Estimated
Mon 08:10:32 AM 47.6193 9.5318 345° North  Level Estimated
Mon 08:11:32 AM 47.7102 9.4962 345° North  Level Estimated

Login

Don't have an account? Register now (free) for customized features, flight alerts, and more!